sensor_id;sensor_type;location;lat;lon;timestamp;temperature;humidity
9881;DHT22;4979;51.014;6.678;2023-04-01T00:01:18;10.20;99.90
9881;DHT22;4979;51.014;6.678;2023-04-01T00:03:44;10.20;99.90
9881;DHT22;4979;51.014;6.678;2023-04-01T00:06:13;10.20;99.90
9881;DHT22;4979;51.014;6.678;2023-04-01T00:08:38;10.20;99.90
9881;DHT22;4979;51.014;6.678;2023-04-01T00:11:04;10.20;99.90
9881;DHT22;4979;51.014;6.678;2023-04-01T00:15:56;10.10;99.90
9881;DHT22;4979;51.014;6.678;2023-04-01T00:18:23;10.10;99.90
9881;DHT22;4979;51.014;6.678;2023-04-01T00:20:50;10.20;99.90
9881;DHT22;4979;51.014;6.678;2023-04-01T00:25:44;10.20;99.90
9881;DHT22;4979;51.014;6.678;2023-04-01T00:28:10;10.20;99.90
9881;DHT22;4979;51.014;6.678;2023-04-01T00:30:37;10.20;99.90
9881;DHT22;4979;51.014;6.678;2023-04-01T00:33:03;10.10;99.90
9881;DHT22;4979;51.014;6.678;2023-04-01T00:35:28;10.10;99.90
9881;DHT22;4979;51.014;6.678;2023-04-01T00:37:55;10.10;99.90
9881;DHT22;4979;51.014;6.678;2023-04-01T00:40:30;10.20;99.90
9881;DHT22;4979;51.014;6.678;2023-04-01T00:42:55;10.20;99.90
9881;DHT22;4979;51.014;6.678;2023-04-01T00:45:29;10.20;99.90
9881;DHT22;4979;51.014;6.678;2023-04-01T00:47:56;10.20;99.90
9881;DHT22;4979;51.014;6.678;2023-04-01T00:50:24;10.20;99.90
9881;DHT22;4979;51.014;6.678;2023-04-01T00:52:52;10.20;99.90
9881;DHT22;4979;51.014;6.678;2023-04-01T00:55:20;10.10;99.90
9881;DHT22;4979;51.014;6.678;2023-04-01T00:57:48;10.00;99.90
9881;DHT22;4979;51.014;6.678;2023-04-01T01:00:16;10.10;99.90
9881;DHT22;4979;51.014;6.678;2023-04-01T01:02:44;10.10;99.90
9881;DHT22;4979;51.014;6.678;2023-04-01T01:05:14;10.10;99.90
9881;DHT22;4979;51.014;6.678;2023-04-01T01:07:46;10.10;99.90
9881;DHT22;4979;51.014;6.678;2023-04-01T01:10:32;10.10;99.90
9881;DHT22;4979;51.014;6.678;2023-04-01T01:13:34;10.10;99.90
9881;DHT22;4979;51.014;6.678;2023-04-01T01:16:09;10.10;99.90
9881;DHT22;4979;51.014;6.678;2023-04-01T01:18:40;10.10;99.90
9881;DHT22;4979;51.014;6.678;2023-04-01T01:21:41;10.10;99.90
9881;DHT22;4979;51.014;6.678;2023-04-01T01:24:35;10.10;99.90
9881;DHT22;4979;51.014;6.678;2023-04-01T01:27:18;10.00;99.90
9881;DHT22;4979;51.014;6.678;2023-04-01T01:30:01;10.10;99.90
9881;DHT22;4979;51.014;6.678;2023-04-01T01:35:40;10.10;99.90
9881;DHT22;4979;51.014;6.678;2023-04-01T01:38:14;10.10;99.90
9881;DHT22;4979;51.014;6.678;2023-04-01T01:40:42;10.00;99.90
9881;DHT22;4979;51.014;6.678;2023-04-01T01:43:12;10.00;99.90
9881;DHT22;4979;51.014;6.678;2023-04-01T01:45:46;10.00;99.90
9881;DHT22;4979;51.014;6.678;2023-04-01T01:48:13;10.00;99.90
9881;DHT22;4979;51.014;6.678;2023-04-01T01:50:41;9.90;99.90
9881;DHT22;4979;51.014;6.678;2023-04-01T01:53:10;10.00;99.90
9881;DHT22;4979;51.014;6.678;2023-04-01T01:55:42;9.90;99.90
9881;DHT22;4979;51.014;6.678;2023-04-01T01:58:24;9.90;99.90
9881;DHT22;4979;51.014;6.678;2023-04-01T02:00:54;9.90;99.90
9881;DHT22;4979;51.014;6.678;2023-04-01T02:03:23;9.90;99.90
9881;DHT22;4979;51.014;6.678;2023-04-01T02:05:51;9.90;99.90
9881;DHT22;4979;51.014;6.678;2023-04-01T02:08:24;9.80;99.90
9881;DHT22;4979;51.014;6.678;2023-04-01T02:11:05;9.80;99.90
9881;DHT22;4979;51.014;6.678;2023-04-01T02:13:42;9.80;99.90
9881;DHT22;4979;51.014;6.678;2023-04-01T02:16:22;9.80;99.90
9881;DHT22;4979;51.014;6.678;2023-04-01T02:18:51;9.90;99.90
9881;DHT22;4979;51.014;6.678;2023-04-01T02:21:20;9.80;99.90
9881;DHT22;4979;51.014;6.678;2023-04-01T02:23:47;9.80;99.90
9881;DHT22;4979;51.014;6.678;2023-04-01T02:26:14;9.90;99.90
9881;DHT22;4979;51.014;6.678;2023-04-01T02:28:41;9.80;99.90
9881;DHT22;4979;51.014;6.678;2023-04-01T02:31:10;9.90;99.90
9881;DHT22;4979;51.014;6.678;2023-04-01T02:33:37;9.90;99.90
9881;DHT22;4979;51.014;6.678;2023-04-01T02:36:04;9.80;99.90
9881;DHT22;4979;51.014;6.678;2023-04-01T02:38:30;9.90;99.90
9881;DHT22;4979;51.014;6.678;2023-04-01T02:40:59;9.90;99.90
9881;DHT22;4979;51.014;6.678;2023-04-01T02:43:25;9.90;99.90
9881;DHT22;4979;51.014;6.678;2023-04-01T02:45:51;9.90;99.90
9881;DHT22;4979;51.014;6.678;2023-04-01T02:48:17;9.90;99.90
9881;DHT22;4979;51.014;6.678;2023-04-01T02:50:42;10.00;99.90
9881;DHT22;4979;51.014;6.678;2023-04-01T02:53:08;9.90;99.90
9881;DHT22;4979;51.014;6.678;2023-04-01T02:55:34;9.90;99.90
9881;DHT22;4979;51.014;6.678;2023-04-01T02:57:59;9.90;99.90
9881;DHT22;4979;51.014;6.678;2023-04-01T03:00:25;9.90;99.90
9881;DHT22;4979;51.014;6.678;2023-04-01T03:02:52;9.90;99.90
9881;DHT22;4979;51.014;6.678;2023-04-01T03:05:17;9.90;99.90
9881;DHT22;4979;51.014;6.678;2023-04-01T03:07:43;9.90;99.90
9881;DHT22;4979;51.014;6.678;2023-04-01T03:10:09;9.90;99.90
9881;DHT22;4979;51.014;6.678;2023-04-01T03:12:35;9.90;99.90
9881;DHT22;4979;51.014;6.678;2023-04-01T03:15:01;9.90;99.90
9881;DHT22;4979;51.014;6.678;2023-04-01T03:17:26;9.80;99.90
9881;DHT22;4979;51.014;6.678;2023-04-01T03:19:52;9.90;99.90
9881;DHT22;4979;51.014;6.678;2023-04-01T03:22:18;9.90;99.90
9881;DHT22;4979;51.014;6.678;2023-04-01T03:27:12;9.90;99.90
9881;DHT22;4979;51.014;6.678;2023-04-01T03:29:38;9.90;99.90
9881;DHT22;4979;51.014;6.678;2023-04-01T03:32:04;9.90;99.90
9881;DHT22;4979;51.014;6.678;2023-04-01T03:34:29;9.80;99.90
9881;DHT22;4979;51.014;6.678;2023-04-01T03:36:55;9.80;99.90
9881;DHT22;4979;51.014;6.678;2023-04-01T03:39:21;9.70;99.90
9881;DHT22;4979;51.014;6.678;2023-04-01T03:44:13;9.60;99.90
9881;DHT22;4979;51.014;6.678;2023-04-01T03:46:39;9.60;99.90
9881;DHT22;4979;51.014;6.678;2023-04-01T03:49:09;9.60;99.90
9881;DHT22;4979;51.014;6.678;2023-04-01T03:51:42;9.70;99.90
9881;DHT22;4979;51.014;6.678;2023-04-01T03:54:08;9.70;99.90
9881;DHT22;4979;51.014;6.678;2023-04-01T03:56:34;9.70;99.90
9881;DHT22;4979;51.014;6.678;2023-04-01T03:59:06;9.60;99.90
9881;DHT22;4979;51.014;6.678;2023-04-01T04:01:32;9.70;99.90
9881;DHT22;4979;51.014;6.678;2023-04-01T04:06:25;9.60;99.90
9881;DHT22;4979;51.014;6.678;2023-04-01T04:16:09;9.60;99.90
9881;DHT22;4979;51.014;6.678;2023-04-01T04:18:36;9.70;99.90
9881;DHT22;4979;51.014;6.678;2023-04-01T04:21:03;9.80;99.90
9881;DHT22;4979;51.014;6.678;2023-04-01T04:23:28;9.70;99.90
9881;DHT22;4979;51.014;6.678;2023-04-01T04:26:04;9.70;99.90
9881;DHT22;4979;51.014;6.678;2023-04-01T04:28:30;9.80;99.90
9881;DHT22;4979;51.014;6.678;2023-04-01T04:30:57;9.70;99.90
9881;DHT22;4979;51.014;6.678;2023-04-01T04:33:22;9.70;99.90
9881;DHT22;4979;51.014;6.678;2023-04-01T04:38:14;9.70;99.90
9881;DHT22;4979;51.014;6.678;2023-04-01T04:40:41;9.60;99.90
9881;DHT22;4979;51.014;6.678;2023-04-01T04:43:10;9.70;99.90
9881;DHT22;4979;51.014;6.678;2023-04-01T04:45:36;9.60;99.90
9881;DHT22;4979;51.014;6.678;2023-04-01T04:48:01;9.70;99.90
9881;DHT22;4979;51.014;6.678;2023-04-01T04:50:27;9.70;99.90
9881;DHT22;4979;51.014;6.678;2023-04-01T04:52:53;9.70;99.90
9881;DHT22;4979;51.014;6.678;2023-04-01T04:55:18;9.70;99.90
9881;DHT22;4979;51.014;6.678;2023-04-01T04:57:44;9.70;99.90
9881;DHT22;4979;51.014;6.678;2023-04-01T05:00:10;9.70;99.90
9881;DHT22;4979;51.014;6.678;2023-04-01T05:02:36;9.70;99.90
9881;DHT22;4979;51.014;6.678;2023-04-01T05:05:02;9.70;99.90
9881;DHT22;4979;51.014;6.678;2023-04-01T05:07:27;9.70;99.90
9881;DHT22;4979;51.014;6.678;2023-04-01T05:09:53;9.70;99.90
9881;DHT22;4979;51.014;6.678;2023-04-01T05:12:19;9.70;99.90
9881;DHT22;4979;51.014;6.678;2023-04-01T05:17:12;9.70;99.90
9881;DHT22;4979;51.014;6.678;2023-04-01T05:22:04;9.70;99.90
9881;DHT22;4979;51.014;6.678;2023-04-01T05:26:56;9.70;99.90
9881;DHT22;4979;51.014;6.678;2023-04-01T05:29:23;9.70;99.90
9881;DHT22;4979;51.014;6.678;2023-04-01T05:31:48;9.70;99.90
9881;DHT22;4979;51.014;6.678;2023-04-01T05:34:14;9.70;99.90
9881;DHT22;4979;51.014;6.678;2023-04-01T05:39:07;9.70;99.90
9881;DHT22;4979;51.014;6.678;2023-04-01T05:41:35;9.70;99.90
9881;DHT22;4979;51.014;6.678;2023-04-01T05:44:01;9.70;99.90
9881;DHT22;4979;51.014;6.678;2023-04-01T05:46:27;9.70;99.90
9881;DHT22;4979;51.014;6.678;2023-04-01T05:48:52;9.70;99.90
9881;DHT22;4979;51.014;6.678;2023-04-01T05:51:18;9.70;99.90
9881;DHT22;4979;51.014;6.678;2023-04-01T05:56:09;9.70;99.90
9881;DHT22;4979;51.014;6.678;2023-04-01T05:58:36;9.70;99.90
9881;DHT22;4979;51.014;6.678;2023-04-01T06:01:07;9.70;99.90
9881;DHT22;4979;51.014;6.678;2023-04-01T06:03:33;9.70;99.90
9881;DHT22;4979;51.014;6.678;2023-04-01T06:08:26;9.80;99.90
9881;DHT22;4979;51.014;6.678;2023-04-01T06:16:11;9.90;99.90
9881;DHT22;4979;51.014;6.678;2023-04-01T06:21:42;9.80;99.90
9881;DHT22;4979;51.014;6.678;2023-04-01T06:24:36;9.90;99.90
9881;DHT22;4979;51.014;6.678;2023-04-01T06:30:28;9.90;99.90
9881;DHT22;4979;51.014;6.678;2023-04-01T06:33:17;9.90;99.90
9881;DHT22;4979;51.014;6.678;2023-04-01T06:35:58;10.00;99.90
9881;DHT22;4979;51.014;6.678;2023-04-01T06:44:09;10.00;99.90
9881;DHT22;4979;51.014;6.678;2023-04-01T06:52:32;10.00;99.90
9881;DHT22;4979;51.014;6.678;2023-04-01T06:55:46;10.00;99.90
9881;DHT22;4979;51.014;6.678;2023-04-01T06:58:27;9.90;99.90
9881;DHT22;4979;51.014;6.678;2023-04-01T07:00:58;9.90;99.90
9881;DHT22;4979;51.014;6.678;2023-04-01T07:03:33;10.00;99.90
9881;DHT22;4979;51.014;6.678;2023-04-01T07:06:04;10.00;99.90
9881;DHT22;4979;51.014;6.678;2023-04-01T07:08:35;10.00;99.90
9881;DHT22;4979;51.014;6.678;2023-04-01T07:11:04;10.00;99.90
9881;DHT22;4979;51.014;6.678;2023-04-01T07:13:45;10.00;99.90
9881;DHT22;4979;51.014;6.678;2023-04-01T07:16:41;10.00;99.90
9881;DHT22;4979;51.014;6.678;2023-04-01T07:19:15;10.00;99.90
9881;DHT22;4979;51.014;6.678;2023-04-01T07:21:51;10.00;99.90
9881;DHT22;4979;51.014;6.678;2023-04-01T07:24:26;10.00;99.90
9881;DHT22;4979;51.014;6.678;2023-04-01T07:26:55;10.00;99.90
9881;DHT22;4979;51.014;6.678;2023-04-01T07:29:22;10.00;99.90
9881;DHT22;4979;51.014;6.678;2023-04-01T07:35:30;10.00;99.90
9881;DHT22;4979;51.014;6.678;2023-04-01T07:43:57;10.10;99.90
9881;DHT22;4979;51.014;6.678;2023-04-01T07:49:34;10.00;99.90
9881;DHT22;4979;51.014;6.678;2023-04-01T07:52:13;10.10;99.90
9881;DHT22;4979;51.014;6.678;2023-04-01T07:54:57;10.00;99.90
9881;DHT22;4979;51.014;6.678;2023-04-01T07:57:37;10.00;99.90
9881;DHT22;4979;51.014;6.678;2023-04-01T08:00:16;10.00;99.90
9881;DHT22;4979;51.014;6.678;2023-04-01T08:02:54;10.00;99.90
9881;DHT22;4979;51.014;6.678;2023-04-01T08:05:32;10.10;99.90
9881;DHT22;4979;51.014;6.678;2023-04-01T08:19:50;10.20;99.90
9881;DHT22;4979;51.014;6.678;2023-04-01T08:22:38;10.30;99.90
9881;DHT22;4979;51.014;6.678;2023-04-01T08:25:06;10.40;99.90
9881;DHT22;4979;51.014;6.678;2023-04-01T08:27:39;10.50;99.90
9881;DHT22;4979;51.014;6.678;2023-04-01T08:30:24;10.40;99.90
9881;DHT22;4979;51.014;6.678;2023-04-01T08:32:56;10.40;99.90
9881;DHT22;4979;51.014;6.678;2023-04-01T08:35:34;10.50;99.90
9881;DHT22;4979;51.014;6.678;2023-04-01T08:38:10;10.50;99.90
9881;DHT22;4979;51.014;6.678;2023-04-01T08:40:58;10.50;99.90
9881;DHT22;4979;51.014;6.678;2023-04-01T08:46:36;10.50;99.90
9881;DHT22;4979;51.014;6.678;2023-04-01T08:52:20;10.50;99.90
9881;DHT22;4979;51.014;6.678;2023-04-01T08:57:58;10.40;99.90
9881;DHT22;4979;51.014;6.678;2023-04-01T09:00:53;10.40;99.90
9881;DHT22;4979;51.014;6.678;2023-04-01T09:03:40;10.40;99.90
9881;DHT22;4979;51.014;6.678;2023-04-01T09:12:24;10.70;99.90
9881;DHT22;4979;51.014;6.678;2023-04-01T09:15:19;10.70;99.90
9881;DHT22;4979;51.014;6.678;2023-04-01T09:21:16;10.60;99.90
9881;DHT22;4979;51.014;6.678;2023-04-01T09:26:24;10.60;99.90
9881;DHT22;4979;51.014;6.678;2023-04-01T09:32:24;10.50;99.90
9881;DHT22;4979;51.014;6.678;2023-04-01T09:57:55;10.50;99.90
9881;DHT22;4979;51.014;6.678;2023-04-01T10:01:02;10.50;99.90
9881;DHT22;4979;51.014;6.678;2023-04-01T10:12:32;10.60;99.90
9881;DHT22;4979;51.014;6.678;2023-04-01T10:21:16;10.60;99.90
9881;DHT22;4979;51.014;6.678;2023-04-01T10:38:26;10.80;99.90
9881;DHT22;4979;51.014;6.678;2023-04-01T10:41:20;10.90;99.90
9881;DHT22;4979;51.014;6.678;2023-04-01T10:49:23;11.00;99.90
9881;DHT22;4979;51.014;6.678;2023-04-01T10:55:04;11.10;99.90
9881;DHT22;4979;51.014;6.678;2023-04-01T11:11:43;11.30;99.90
9881;DHT22;4979;51.014;6.678;2023-04-01T11:14:52;11.30;99.90
9881;DHT22;4979;51.014;6.678;2023-04-01T11:26:08;11.70;99.90
9881;DHT22;4979;51.014;6.678;2023-04-01T11:31:17;11.60;99.90
9881;DHT22;4979;51.014;6.678;2023-04-01T11:36:55;11.40;99.90
9881;DHT22;4979;51.014;6.678;2023-04-01T11:39:56;11.50;99.90
9881;DHT22;4979;51.014;6.678;2023-04-01T11:42:34;11.50;99.90
9881;DHT22;4979;51.014;6.678;2023-04-01T11:53:00;11.80;99.90
9881;DHT22;4979;51.014;6.678;2023-04-01T12:06:50;11.80;99.90
9881;DHT22;4979;51.014;6.678;2023-04-01T12:09:35;11.90;99.90
9881;DHT22;4979;51.014;6.678;2023-04-01T12:12:14;11.70;99.90
9881;DHT22;4979;51.014;6.678;2023-04-01T12:15:10;11.90;99.90
9881;DHT22;4979;51.014;6.678;2023-04-01T12:21:00;12.10;99.90
9881;DHT22;4979;51.014;6.678;2023-04-01T12:33:03;11.90;99.90
9881;DHT22;4979;51.014;6.678;2023-04-01T12:35:55;12.00;99.90
9881;DHT22;4979;51.014;6.678;2023-04-01T12:38:30;12.00;99.90
9881;DHT22;4979;51.014;6.678;2023-04-01T12:41:13;11.90;99.90
9881;DHT22;4979;51.014;6.678;2023-04-01T12:43:59;12.00;99.90
9881;DHT22;4979;51.014;6.678;2023-04-01T12:46:52;11.90;99.90
9881;DHT22;4979;51.014;6.678;2023-04-01T12:49:53;12.10;99.90
9881;DHT22;4979;51.014;6.678;2023-04-01T12:52:45;12.20;99.90
9881;DHT22;4979;51.014;6.678;2023-04-01T12:55:38;12.20;99.90
9881;DHT22;4979;51.014;6.678;2023-04-01T13:01:07;12.60;99.90
9881;DHT22;4979;51.014;6.678;2023-04-01T13:07:07;12.40;99.90
9881;DHT22;4979;51.014;6.678;2023-04-01T13:09:50;12.20;99.90
9881;DHT22;4979;51.014;6.678;2023-04-01T13:17:48;11.90;99.90
9881;DHT22;4979;51.014;6.678;2023-04-01T13:23:28;11.80;99.90
9881;DHT22;4979;51.014;6.678;2023-04-01T13:28:39;11.60;99.90
9881;DHT22;4979;51.014;6.678;2023-04-01T13:31:21;11.60;99.90
9881;DHT22;4979;51.014;6.678;2023-04-01T13:42:45;11.40;99.90
9881;DHT22;4979;51.014;6.678;2023-04-01T13:45:29;11.40;99.90
9881;DHT22;4979;51.014;6.678;2023-04-01T13:56:07;11.30;99.90
9881;DHT22;4979;51.014;6.678;2023-04-01T13:59:16;11.40;99.90
9881;DHT22;4979;51.014;6.678;2023-04-01T14:07:39;11.30;99.90
9881;DHT22;4979;51.014;6.678;2023-04-01T14:10:55;11.30;99.90
9881;DHT22;4979;51.014;6.678;2023-04-01T14:13:31;11.40;99.90
9881;DHT22;4979;51.014;6.678;2023-04-01T14:24:58;11.30;99.90
9881;DHT22;4979;51.014;6.678;2023-04-01T14:27:48;11.40;99.90
9881;DHT22;4979;51.014;6.678;2023-04-01T14:30:45;11.30;99.90
9881;DHT22;4979;51.014;6.678;2023-04-01T14:48:57;11.30;99.90
9881;DHT22;4979;51.014;6.678;2023-04-01T14:51:32;11.40;99.90
9881;DHT22;4979;51.014;6.678;2023-04-01T14:56:51;11.40;99.90
9881;DHT22;4979;51.014;6.678;2023-04-01T15:04:56;11.20;99.90
9881;DHT22;4979;51.014;6.678;2023-04-01T15:16:10;11.30;99.90
9881;DHT22;4979;51.014;6.678;2023-04-01T15:19:01;11.30;99.90
9881;DHT22;4979;51.014;6.678;2023-04-01T15:35:42;11.30;99.90
9881;DHT22;4979;51.014;6.678;2023-04-01T15:48:55;11.30;99.90
9881;DHT22;4979;51.014;6.678;2023-04-01T15:54:27;11.30;99.90
9881;DHT22;4979;51.014;6.678;2023-04-01T15:57:24;11.50;99.90
9881;DHT22;4979;51.014;6.678;2023-04-01T16:00:26;11.60;99.90
9881;DHT22;4979;51.014;6.678;2023-04-01T16:19:51;11.30;99.90
9881;DHT22;4979;51.014;6.678;2023-04-01T16:22:40;11.20;99.90
9881;DHT22;4979;51.014;6.678;2023-04-01T16:28:31;11.00;99.90
9881;DHT22;4979;51.014;6.678;2023-04-01T16:31:06;11.10;99.90
9881;DHT22;4979;51.014;6.678;2023-04-01T16:36:37;11.00;99.90
9881;DHT22;4979;51.014;6.678;2023-04-01T16:39:19;10.90;99.90
9881;DHT22;4979;51.014;6.678;2023-04-01T16:44:26;10.90;99.90
9881;DHT22;4979;51.014;6.678;2023-04-01T16:46:59;10.90;99.90
9881;DHT22;4979;51.014;6.678;2023-04-01T16:50:05;10.90;99.90
9881;DHT22;4979;51.014;6.678;2023-04-01T16:58:34;10.80;99.90
9881;DHT22;4979;51.014;6.678;2023-04-01T17:01:05;10.70;99.90
9881;DHT22;4979;51.014;6.678;2023-04-01T17:03:38;10.70;99.90
9881;DHT22;4979;51.014;6.678;2023-04-01T17:09:37;10.80;99.90
9881;DHT22;4979;51.014;6.678;2023-04-01T17:20:19;10.60;99.90
9881;DHT22;4979;51.014;6.678;2023-04-01T17:23:01;10.60;99.90
9881;DHT22;4979;51.014;6.678;2023-04-01T17:29:03;10.40;99.90
9881;DHT22;4979;51.014;6.678;2023-04-01T17:31:41;10.30;99.90
9881;DHT22;4979;51.014;6.678;2023-04-01T17:42:09;10.30;99.90
9881;DHT22;4979;51.014;6.678;2023-04-01T17:47:58;10.30;99.90
9881;DHT22;4979;51.014;6.678;2023-04-01T17:50:51;10.20;99.90
9881;DHT22;4979;51.014;6.678;2023-04-01T17:53:33;10.10;99.90
9881;DHT22;4979;51.014;6.678;2023-04-01T18:21:14;10.00;99.90
9881;DHT22;4979;51.014;6.678;2023-04-01T18:26:32;10.00;99.90
9881;DHT22;4979;51.014;6.678;2023-04-01T18:32:26;10.00;99.90
9881;DHT22;4979;51.014;6.678;2023-04-01T18:35:29;10.00;99.90
9881;DHT22;4979;51.014;6.678;2023-04-01T18:46:24;10.00;99.90
9881;DHT22;4979;51.014;6.678;2023-04-01T18:49:17;10.00;99.90
9881;DHT22;4979;51.014;6.678;2023-04-01T18:51:54;10.00;99.90
9881;DHT22;4979;51.014;6.678;2023-04-01T18:57:13;9.90;99.90
9881;DHT22;4979;51.014;6.678;2023-04-01T18:59:43;9.90;99.90
9881;DHT22;4979;51.014;6.678;2023-04-01T19:02:19;9.80;99.90
9881;DHT22;4979;51.014;6.678;2023-04-01T19:35:09;9.80;99.90
9881;DHT22;4979;51.014;6.678;2023-04-01T19:37:51;9.80;99.90
9881;DHT22;4979;51.014;6.678;2023-04-01T19:51:46;9.70;99.90
9881;DHT22;4979;51.014;6.678;2023-04-01T19:54:42;9.70;99.90
9881;DHT22;4979;51.014;6.678;2023-04-01T20:00:05;9.70;99.90
9881;DHT22;4979;51.014;6.678;2023-04-01T20:03:00;9.70;99.90
9881;DHT22;4979;51.014;6.678;2023-04-01T20:05:56;9.70;99.90
9881;DHT22;4979;51.014;6.678;2023-04-01T20:12:00;9.70;99.90
9881;DHT22;4979;51.014;6.678;2023-04-01T20:14:51;9.60;99.90
9881;DHT22;4979;51.014;6.678;2023-04-01T20:17:27;9.60;99.90
9881;DHT22;4979;51.014;6.678;2023-04-01T20:25:32;9.70;99.90
9881;DHT22;4979;51.014;6.678;2023-04-01T20:28:04;9.70;99.90
9881;DHT22;4979;51.014;6.678;2023-04-01T20:30:44;9.60;99.90
9881;DHT22;4979;51.014;6.678;2023-04-01T20:36:20;9.70;99.90
9881;DHT22;4979;51.014;6.678;2023-04-01T20:38:59;9.60;99.90
9881;DHT22;4979;51.014;6.678;2023-04-01T20:57:34;9.60;99.90
9881;DHT22;4979;51.014;6.678;2023-04-01T21:24:47;9.60;99.90
9881;DHT22;4979;51.014;6.678;2023-04-01T21:37:58;9.70;99.90
9881;DHT22;4979;51.014;6.678;2023-04-01T21:43:41;9.80;99.90
9881;DHT22;4979;51.014;6.678;2023-04-01T21:59:23;9.90;99.90
9881;DHT22;4979;51.014;6.678;2023-04-01T22:07:27;9.70;99.90
9881;DHT22;4979;51.014;6.678;2023-04-01T22:21:07;9.60;99.90
9881;DHT22;4979;51.014;6.678;2023-04-01T22:24:00;9.60;99.90
9881;DHT22;4979;51.014;6.678;2023-04-01T22:26:44;9.50;99.90
9881;DHT22;4979;51.014;6.678;2023-04-01T22:32:05;9.40;99.90
9881;DHT22;4979;51.014;6.678;2023-04-01T22:34:41;9.40;99.90
9881;DHT22;4979;51.014;6.678;2023-04-01T22:37:37;9.40;99.90
9881;DHT22;4979;51.014;6.678;2023-04-01T22:46:03;9.30;99.90
9881;DHT22;4979;51.014;6.678;2023-04-01T22:48:43;9.30;99.90
9881;DHT22;4979;51.014;6.678;2023-04-01T22:51:22;9.20;99.90
9881;DHT22;4979;51.014;6.678;2023-04-01T22:54:01;9.10;99.90
9881;DHT22;4979;51.014;6.678;2023-04-01T22:56:38;9.10;99.90
9881;DHT22;4979;51.014;6.678;2023-04-01T22:59:12;9.00;99.90
9881;DHT22;4979;51.014;6.678;2023-04-01T23:01:51;9.00;99.90
9881;DHT22;4979;51.014;6.678;2023-04-01T23:04:23;9.00;99.90
9881;DHT22;4979;51.014;6.678;2023-04-01T23:06:55;8.90;99.90
9881;DHT22;4979;51.014;6.678;2023-04-01T23:09:30;8.90;99.90
9881;DHT22;4979;51.014;6.678;2023-04-01T23:12:07;9.00;99.90
9881;DHT22;4979;51.014;6.678;2023-04-01T23:20:26;8.90;99.90
9881;DHT22;4979;51.014;6.678;2023-04-01T23:23:15;8.90;99.90
9881;DHT22;4979;51.014;6.678;2023-04-01T23:31:28;8.80;99.90
9881;DHT22;4979;51.014;6.678;2023-04-01T23:33:56;8.80;99.90
9881;DHT22;4979;51.014;6.678;2023-04-01T23:36:22;8.70;99.90
9881;DHT22;4979;51.014;6.678;2023-04-01T23:38:49;8.70;99.90
9881;DHT22;4979;51.014;6.678;2023-04-01T23:41:27;8.70;99.90
9881;DHT22;4979;51.014;6.678;2023-04-01T23:44:05;8.80;99.90
9881;DHT22;4979;51.014;6.678;2023-04-01T23:46:33;8.70;99.90
9881;DHT22;4979;51.014;6.678;2023-04-01T23:49:01;8.70;99.90
9881;DHT22;4979;51.014;6.678;2023-04-01T23:51:58;8.70;99.90
9881;DHT22;4979;51.014;6.678;2023-04-01T23:54:43;8.70;99.90
9881;DHT22;4979;51.014;6.678;2023-04-01T23:57:18;8.70;99.90
